sensor_id;sensor_type;location;lat;lon;timestamp;P1;durP1;ratioP1;P2;durP2;ratioP2
12816;SDS011;6473;51.552;6.716;2022-11-15T00:01:24;12.90;;;9.95;;
12816;SDS011;6473;51.552;6.716;2022-11-15T00:04:10;11.18;;;9.43;;
12816;SDS011;6473;51.552;6.716;2022-11-15T00:06:55;15.52;;;10.93;;
12816;SDS011;6473;51.552;6.716;2022-11-15T00:09:42;13.60;;;10.48;;
12816;SDS011;6473;51.552;6.716;2022-11-15T00:12:28;15.00;;;9.70;;
12816;SDS011;6473;51.552;6.716;2022-11-15T00:15:13;13.38;;;10.50;;
12816;SDS011;6473;51.552;6.716;2022-11-15T00:17:59;14.13;;;10.35;;
12816;SDS011;6473;51.552;6.716;2022-11-15T00:20:45;15.07;;;10.95;;
12816;SDS011;6473;51.552;6.716;2022-11-15T00:23:30;15.38;;;10.30;;
12816;SDS011;6473;51.552;6.716;2022-11-15T00:26:17;12.57;;;9.75;;
12816;SDS011;6473;51.552;6.716;2022-11-15T00:29:03;14.77;;;10.13;;
12816;SDS011;6473;51.552;6.716;2022-11-15T00:31:49;12.30;;;9.30;;
12816;SDS011;6473;51.552;6.716;2022-11-15T00:34:34;10.40;;;9.32;;
12816;SDS011;6473;51.552;6.716;2022-11-15T00:37:20;10.82;;;7.93;;
12816;SDS011;6473;51.552;6.716;2022-11-15T00:40:05;14.18;;;7.72;;
12816;SDS011;6473;51.552;6.716;2022-11-15T00:42:53;10.32;;;7.30;;
12816;SDS011;6473;51.552;6.716;2022-11-15T00:45:39;10.27;;;7.65;;
12816;SDS011;6473;51.552;6.716;2022-11-15T00:48:24;8.68;;;7.60;;
12816;SDS011;6473;51.552;6.716;2022-11-15T00:51:10;10.02;;;7.43;;
12816;SDS011;6473;51.552;6.716;2022-11-15T00:53:58;10.20;;;7.05;;
12816;SDS011;6473;51.552;6.716;2022-11-15T00:56:44;8.35;;;6.88;;
12816;SDS011;6473;51.552;6.716;2022-11-15T00:59:31;9.90;;;7.70;;
12816;SDS011;6473;51.552;6.716;2022-11-15T01:02:17;8.35;;;6.78;;
12816;SDS011;6473;51.552;6.716;2022-11-15T01:05:03;8.20;;;6.80;;
12816;SDS011;6473;51.552;6.716;2022-11-15T01:07:51;9.07;;;6.80;;
12816;SDS011;6473;51.552;6.716;2022-11-15T01:10:37;9.93;;;6.93;;
12816;SDS011;6473;51.552;6.716;2022-11-15T01:13:25;13.10;;;7.10;;
12816;SDS011;6473;51.552;6.716;2022-11-15T01:16:13;8.82;;;7.43;;
12816;SDS011;6473;51.552;6.716;2022-11-15T01:19:01;10.75;;;7.45;;
12816;SDS011;6473;51.552;6.716;2022-11-15T01:21:48;12.70;;;7.47;;
12816;SDS011;6473;51.552;6.716;2022-11-15T01:24:33;10.20;;;7.82;;
12816;SDS011;6473;51.552;6.716;2022-11-15T01:27:19;10.15;;;7.93;;
12816;SDS011;6473;51.552;6.716;2022-11-15T01:30:06;9.48;;;7.60;;
12816;SDS011;6473;51.552;6.716;2022-11-15T01:32:55;10.95;;;7.65;;
12816;SDS011;6473;51.552;6.716;2022-11-15T01:35:40;8.02;;;7.22;;
12816;SDS011;6473;51.552;6.716;2022-11-15T01:38:26;9.15;;;6.95;;
12816;SDS011;6473;51.552;6.716;2022-11-15T01:41:15;8.40;;;7.20;;
12816;SDS011;6473;51.552;6.716;2022-11-15T01:47:24;9.77;;;7.20;;
12816;SDS011;6473;51.552;6.716;2022-11-15T01:50:16;9.82;;;7.25;;
12816;SDS011;6473;51.552;6.716;2022-11-15T01:53:08;9.50;;;7.32;;
12816;SDS011;6473;51.552;6.716;2022-11-15T01:55:54;11.73;;;7.00;;
12816;SDS011;6473;51.552;6.716;2022-11-15T01:58:41;7.15;;;6.45;;
12816;SDS011;6473;51.552;6.716;2022-11-15T02:01:28;10.05;;;7.13;;
12816;SDS011;6473;51.552;6.716;2022-11-15T02:04:15;9.15;;;6.68;;
12816;SDS011;6473;51.552;6.716;2022-11-15T02:07:06;7.50;;;6.45;;
12816;SDS011;6473;51.552;6.716;2022-11-15T02:09:54;11.43;;;7.05;;
12816;SDS011;6473;51.552;6.716;2022-11-15T02:12:45;11.38;;;6.95;;
12816;SDS011;6473;51.552;6.716;2022-11-15T02:15:33;11.55;;;6.50;;
12816;SDS011;6473;51.552;6.716;2022-11-15T02:18:26;8.02;;;6.20;;
12816;SDS011;6473;51.552;6.716;2022-11-15T02:21:19;7.75;;;6.85;;
12816;SDS011;6473;51.552;6.716;2022-11-15T02:27:46;12.52;;;9.27;;
12816;SDS011;6473;51.552;6.716;2022-11-15T02:30:57;12.23;;;8.73;;
12816;SDS011;6473;51.552;6.716;2022-11-15T02:33:50;10.05;;;7.32;;
12816;SDS011;6473;51.552;6.716;2022-11-15T02:36:40;9.80;;;6.18;;
12816;SDS011;6473;51.552;6.716;2022-11-15T02:39:31;8.88;;;6.57;;
12816;SDS011;6473;51.552;6.716;2022-11-15T02:42:21;9.98;;;7.00;;
12816;SDS011;6473;51.552;6.716;2022-11-15T02:45:30;8.77;;;6.15;;
12816;SDS011;6473;51.552;6.716;2022-11-15T02:48:22;7.28;;;6.10;;
12816;SDS011;6473;51.552;6.716;2022-11-15T02:51:10;8.05;;;5.93;;
12816;SDS011;6473;51.552;6.716;2022-11-15T02:53:57;8.25;;;5.90;;
12816;SDS011;6473;51.552;6.716;2022-11-15T02:56:43;7.57;;;6.00;;
12816;SDS011;6473;51.552;6.716;2022-11-15T02:59:35;8.70;;;5.95;;
12816;SDS011;6473;51.552;6.716;2022-11-15T03:02:37;8.65;;;6.70;;
12816;SDS011;6473;51.552;6.716;2022-11-15T03:05:43;7.43;;;6.15;;
12816;SDS011;6473;51.552;6.716;2022-11-15T03:08:37;7.78;;;6.40;;
12816;SDS011;6473;51.552;6.716;2022-11-15T03:11:35;7.18;;;6.00;;
12816;SDS011;6473;51.552;6.716;2022-11-15T03:14:25;6.53;;;5.93;;
12816;SDS011;6473;51.552;6.716;2022-11-15T03:17:15;8.82;;;5.47;;
12816;SDS011;6473;51.552;6.716;2022-11-15T03:20:07;7.53;;;6.25;;
12816;SDS011;6473;51.552;6.716;2022-11-15T03:22:56;8.43;;;5.70;;
12816;SDS011;6473;51.552;6.716;2022-11-15T03:25:46;10.82;;;6.15;;
12816;SDS011;6473;51.552;6.716;2022-11-15T03:28:36;6.93;;;5.95;;
12816;SDS011;6473;51.552;6.716;2022-11-15T03:31:25;10.38;;;6.68;;
12816;SDS011;6473;51.552;6.716;2022-11-15T03:34:34;10.18;;;6.05;;
12816;SDS011;6473;51.552;6.716;2022-11-15T03:37:24;9.18;;;6.78;;
12816;SDS011;6473;51.552;6.716;2022-11-15T03:40:17;7.60;;;6.25;;
12816;SDS011;6473;51.552;6.716;2022-11-15T03:43:11;7.45;;;6.18;;
12816;SDS011;6473;51.552;6.716;2022-11-15T03:46:04;7.72;;;6.40;;
12816;SDS011;6473;51.552;6.716;2022-11-15T03:49:04;8.88;;;7.25;;
12816;SDS011;6473;51.552;6.716;2022-11-15T03:51:55;10.18;;;7.63;;
12816;SDS011;6473;51.552;6.716;2022-11-15T03:54:52;10.40;;;7.53;;
12816;SDS011;6473;51.552;6.716;2022-11-15T03:57:40;10.27;;;7.75;;
12816;SDS011;6473;51.552;6.716;2022-11-15T04:00:25;10.95;;;8.35;;
12816;SDS011;6473;51.552;6.716;2022-11-15T04:03:11;12.30;;;7.05;;
12816;SDS011;6473;51.552;6.716;2022-11-15T04:05:57;9.35;;;7.53;;
12816;SDS011;6473;51.552;6.716;2022-11-15T04:08:42;10.65;;;7.80;;
12816;SDS011;6473;51.552;6.716;2022-11-15T04:11:28;10.43;;;7.72;;
12816;SDS011;6473;51.552;6.716;2022-11-15T04:14:14;8.60;;;7.50;;
12816;SDS011;6473;51.552;6.716;2022-11-15T04:17:00;11.10;;;7.38;;
12816;SDS011;6473;51.552;6.716;2022-11-15T04:19:46;8.75;;;6.63;;
12816;SDS011;6473;51.552;6.716;2022-11-15T04:22:51;8.05;;;6.50;;
12816;SDS011;6473;51.552;6.716;2022-11-15T04:25:56;8.40;;;6.53;;
12816;SDS011;6473;51.552;6.716;2022-11-15T04:28:43;6.90;;;5.72;;
12816;SDS011;6473;51.552;6.716;2022-11-15T04:31:44;12.02;;;6.72;;
12816;SDS011;6473;51.552;6.716;2022-11-15T04:34:29;8.32;;;6.28;;
12816;SDS011;6473;51.552;6.716;2022-11-15T04:37:15;9.40;;;6.75;;
12816;SDS011;6473;51.552;6.716;2022-11-15T04:40:02;8.82;;;6.50;;
12816;SDS011;6473;51.552;6.716;2022-11-15T04:42:48;13.25;;;6.53;;
12816;SDS011;6473;51.552;6.716;2022-11-15T04:45:33;9.63;;;6.82;;
12816;SDS011;6473;51.552;6.716;2022-11-15T04:48:20;11.25;;;7.07;;
12816;SDS011;6473;51.552;6.716;2022-11-15T04:51:06;9.18;;;7.45;;
12816;SDS011;6473;51.552;6.716;2022-11-15T04:53:51;12.35;;;7.20;;
12816;SDS011;6473;51.552;6.716;2022-11-15T04:56:37;11.40;;;7.43;;
12816;SDS011;6473;51.552;6.716;2022-11-15T04:59:22;11.18;;;7.72;;
12816;SDS011;6473;51.552;6.716;2022-11-15T05:02:08;10.93;;;7.53;;
12816;SDS011;6473;51.552;6.716;2022-11-15T05:04:55;10.77;;;7.65;;
12816;SDS011;6473;51.552;6.716;2022-11-15T05:07:40;10.27;;;8.10;;
12816;SDS011;6473;51.552;6.716;2022-11-15T05:10:25;10.85;;;7.65;;
12816;SDS011;6473;51.552;6.716;2022-11-15T05:13:11;12.85;;;8.10;;
12816;SDS011;6473;51.552;6.716;2022-11-15T05:15:56;9.63;;;8.18;;
12816;SDS011;6473;51.552;6.716;2022-11-15T05:18:42;12.10;;;8.43;;
12816;SDS011;6473;51.552;6.716;2022-11-15T05:21:29;10.77;;;8.85;;
12816;SDS011;6473;51.552;6.716;2022-11-15T05:24:17;11.25;;;8.63;;
12816;SDS011;6473;51.552;6.716;2022-11-15T05:27:04;11.02;;;7.85;;
12816;SDS011;6473;51.552;6.716;2022-11-15T05:29:49;12.50;;;8.50;;
12816;SDS011;6473;51.552;6.716;2022-11-15T05:32:35;12.80;;;8.88;;
12816;SDS011;6473;51.552;6.716;2022-11-15T05:35:29;10.18;;;7.70;;
12816;SDS011;6473;51.552;6.716;2022-11-15T05:38:22;10.00;;;8.70;;
12816;SDS011;6473;51.552;6.716;2022-11-15T05:41:08;8.95;;;7.35;;
12816;SDS011;6473;51.552;6.716;2022-11-15T05:43:55;8.20;;;6.43;;
12816;SDS011;6473;51.552;6.716;2022-11-15T05:46:40;7.25;;;6.40;;
12816;SDS011;6473;51.552;6.716;2022-11-15T05:49:30;8.60;;;6.55;;
12816;SDS011;6473;51.552;6.716;2022-11-15T05:52:19;8.65;;;6.82;;
12816;SDS011;6473;51.552;6.716;2022-11-15T05:55:09;8.02;;;6.43;;
12816;SDS011;6473;51.552;6.716;2022-11-15T05:57:55;7.97;;;6.53;;
12816;SDS011;6473;51.552;6.716;2022-11-15T06:00:40;8.30;;;7.35;;
12816;SDS011;6473;51.552;6.716;2022-11-15T06:03:27;10.23;;;6.40;;
12816;SDS011;6473;51.552;6.716;2022-11-15T06:06:12;8.02;;;7.10;;
12816;SDS011;6473;51.552;6.716;2022-11-15T06:08:59;8.10;;;6.22;;
12816;SDS011;6473;51.552;6.716;2022-11-15T06:11:46;8.88;;;6.28;;
12816;SDS011;6473;51.552;6.716;2022-11-15T06:14:34;9.88;;;6.57;;
12816;SDS011;6473;51.552;6.716;2022-11-15T06:17:21;10.02;;;6.75;;
12816;SDS011;6473;51.552;6.716;2022-11-15T06:20:07;7.53;;;6.28;;
12816;SDS011;6473;51.552;6.716;2022-11-15T06:23:02;7.13;;;6.28;;
12816;SDS011;6473;51.552;6.716;2022-11-15T06:25:49;9.55;;;6.40;;
12816;SDS011;6473;51.552;6.716;2022-11-15T06:28:36;8.10;;;6.40;;
12816;SDS011;6473;51.552;6.716;2022-11-15T06:31:22;8.90;;;6.32;;
12816;SDS011;6473;51.552;6.716;2022-11-15T06:34:09;7.10;;;6.28;;
12816;SDS011;6473;51.552;6.716;2022-11-15T06:36:54;9.05;;;6.32;;
12816;SDS011;6473;51.552;6.716;2022-11-15T06:39:41;7.90;;;6.28;;
12816;SDS011;6473;51.552;6.716;2022-11-15T06:42:27;6.50;;;5.90;;
12816;SDS011;6473;51.552;6.716;2022-11-15T06:45:14;6.88;;;6.05;;
12816;SDS011;6473;51.552;6.716;2022-11-15T06:48:01;7.00;;;5.68;;
12816;SDS011;6473;51.552;6.716;2022-11-15T06:50:49;6.45;;;5.40;;
12816;SDS011;6473;51.552;6.716;2022-11-15T06:53:35;8.93;;;6.50;;
12816;SDS011;6473;51.552;6.716;2022-11-15T06:56:24;7.40;;;6.15;;
12816;SDS011;6473;51.552;6.716;2022-11-15T06:59:09;8.07;;;6.13;;
12816;SDS011;6473;51.552;6.716;2022-11-15T07:01:56;6.88;;;5.78;;
12816;SDS011;6473;51.552;6.716;2022-11-15T07:04:43;6.50;;;5.32;;
12816;SDS011;6473;51.552;6.716;2022-11-15T07:07:30;5.95;;;5.35;;
12816;SDS011;6473;51.552;6.716;2022-11-15T07:10:17;6.18;;;5.57;;
12816;SDS011;6473;51.552;6.716;2022-11-15T07:13:03;7.32;;;5.30;;
12816;SDS011;6473;51.552;6.716;2022-11-15T07:16:02;7.20;;;5.40;;
12816;SDS011;6473;51.552;6.716;2022-11-15T07:18:52;5.88;;;5.28;;
12816;SDS011;6473;51.552;6.716;2022-11-15T07:21:46;8.82;;;5.40;;
12816;SDS011;6473;51.552;6.716;2022-11-15T07:24:31;7.18;;;5.60;;
12816;SDS011;6473;51.552;6.716;2022-11-15T07:27:20;6.68;;;5.00;;
12816;SDS011;6473;51.552;6.716;2022-11-15T07:30:10;5.38;;;4.88;;
12816;SDS011;6473;51.552;6.716;2022-11-15T07:33:04;6.68;;;4.90;;
12816;SDS011;6473;51.552;6.716;2022-11-15T07:46:46;8.40;;;5.35;;
12816;SDS011;6473;51.552;6.716;2022-11-15T07:49:33;7.38;;;5.53;;
12816;SDS011;6473;51.552;6.716;2022-11-15T07:52:20;7.40;;;4.88;;
12816;SDS011;6473;51.552;6.716;2022-11-15T07:55:09;6.05;;;4.50;;
12816;SDS011;6473;51.552;6.716;2022-11-15T07:57:59;5.53;;;4.00;;
12816;SDS011;6473;51.552;6.716;2022-11-15T08:00:47;4.95;;;4.45;;
12816;SDS011;6473;51.552;6.716;2022-11-15T08:03:34;6.13;;;4.47;;
12816;SDS011;6473;51.552;6.716;2022-11-15T08:06:23;10.57;;;6.20;;
12816;SDS011;6473;51.552;6.716;2022-11-15T08:09:10;7.13;;;5.68;;
12816;SDS011;6473;51.552;6.716;2022-11-15T08:11:56;5.72;;;3.72;;
12816;SDS011;6473;51.552;6.716;2022-11-15T08:14:42;3.03;;;2.72;;
12816;SDS011;6473;51.552;6.716;2022-11-15T08:17:28;3.53;;;2.35;;
12816;SDS011;6473;51.552;6.716;2022-11-15T08:20:30;3.17;;;1.90;;
12816;SDS011;6473;51.552;6.716;2022-11-15T08:23:26;2.35;;;1.83;;
12816;SDS011;6473;51.552;6.716;2022-11-15T08:26:24;3.50;;;2.50;;
12816;SDS011;6473;51.552;6.716;2022-11-15T08:29:15;2.30;;;1.85;;
12816;SDS011;6473;51.552;6.716;2022-11-15T08:32:12;2.08;;;1.80;;
12816;SDS011;6473;51.552;6.716;2022-11-15T08:39:22;1.48;;;1.38;;
12816;SDS011;6473;51.552;6.716;2022-11-15T08:42:07;2.78;;;1.65;;
12816;SDS011;6473;51.552;6.716;2022-11-15T08:44:53;2.08;;;1.40;;
12816;SDS011;6473;51.552;6.716;2022-11-15T08:47:41;2.95;;;1.80;;
12816;SDS011;6473;51.552;6.716;2022-11-15T08:50:29;1.90;;;1.80;;
12816;SDS011;6473;51.552;6.716;2022-11-15T08:53:17;2.22;;;1.92;;
12816;SDS011;6473;51.552;6.716;2022-11-15T08:56:06;2.65;;;2.10;;
12816;SDS011;6473;51.552;6.716;2022-11-15T08:58:54;5.45;;;3.47;;
12816;SDS011;6473;51.552;6.716;2022-11-15T09:01:46;5.10;;;4.60;;
12816;SDS011;6473;51.552;6.716;2022-11-15T09:07:22;2.90;;;2.67;;
12816;SDS011;6473;51.552;6.716;2022-11-15T09:10:08;5.90;;;4.43;;
12816;SDS011;6473;51.552;6.716;2022-11-15T09:12:56;4.30;;;2.92;;
12816;SDS011;6473;51.552;6.716;2022-11-15T09:15:48;3.70;;;2.50;;
12816;SDS011;6473;51.552;6.716;2022-11-15T09:18:49;3.55;;;3.05;;
12816;SDS011;6473;51.552;6.716;2022-11-15T09:21:44;2.30;;;2.10;;
12816;SDS011;6473;51.552;6.716;2022-11-15T09:28:09;2.55;;;2.35;;
12816;SDS011;6473;51.552;6.716;2022-11-15T09:31:15;3.28;;;2.60;;
12816;SDS011;6473;51.552;6.716;2022-11-15T09:34:01;3.15;;;2.88;;
12816;SDS011;6473;51.552;6.716;2022-11-15T09:36:48;3.97;;;3.17;;
12816;SDS011;6473;51.552;6.716;2022-11-15T09:39:34;6.50;;;3.58;;
12816;SDS011;6473;51.552;6.716;2022-11-15T09:42:25;6.75;;;4.20;;
12816;SDS011;6473;51.552;6.716;2022-11-15T09:45:26;5.35;;;3.42;;
12816;SDS011;6473;51.552;6.716;2022-11-15T09:51:32;6.13;;;3.65;;
12816;SDS011;6473;51.552;6.716;2022-11-15T09:54:03;5.13;;;3.28;;
12816;SDS011;6473;51.552;6.716;2022-11-15T09:56:37;5.13;;;3.50;;
12816;SDS011;6473;51.552;6.716;2022-11-15T09:59:17;7.65;;;3.50;;
12816;SDS011;6473;51.552;6.716;2022-11-15T10:02:00;3.85;;;2.50;;
12816;SDS011;6473;51.552;6.716;2022-11-15T10:04:36;6.22;;;2.83;;
12816;SDS011;6473;51.552;6.716;2022-11-15T10:07:13;5.13;;;2.97;;
12816;SDS011;6473;51.552;6.716;2022-11-15T10:09:44;2.88;;;2.65;;
12816;SDS011;6473;51.552;6.716;2022-11-15T10:12:14;4.88;;;2.85;;
12816;SDS011;6473;51.552;6.716;2022-11-15T10:17:17;3.00;;;2.70;;
12816;SDS011;6473;51.552;6.716;2022-11-15T10:19:56;2.80;;;2.60;;
12816;SDS011;6473;51.552;6.716;2022-11-15T10:22:29;3.17;;;2.50;;
12816;SDS011;6473;51.552;6.716;2022-11-15T10:25:13;4.13;;;2.67;;
12816;SDS011;6473;51.552;6.716;2022-11-15T10:27:44;3.90;;;2.10;;
12816;SDS011;6473;51.552;6.716;2022-11-15T10:30:18;2.90;;;2.28;;
12816;SDS011;6473;51.552;6.716;2022-11-15T10:32:47;2.42;;;2.10;;
12816;SDS011;6473;51.552;6.716;2022-11-15T10:35:19;2.25;;;1.90;;
12816;SDS011;6473;51.552;6.716;2022-11-15T10:37:50;2.60;;;1.77;;
12816;SDS011;6473;51.552;6.716;2022-11-15T10:40:18;2.33;;;1.80;;
12816;SDS011;6473;51.552;6.716;2022-11-15T10:42:47;2.03;;;1.90;;
12816;SDS011;6473;51.552;6.716;2022-11-15T10:45:31;2.08;;;1.63;;
12816;SDS011;6473;51.552;6.716;2022-11-15T10:50:59;2.40;;;1.75;;
12816;SDS011;6473;51.552;6.716;2022-11-15T10:56:49;2.60;;;1.25;;
12816;SDS011;6473;51.552;6.716;2022-11-15T10:59:20;1.83;;;1.63;;
12816;SDS011;6473;51.552;6.716;2022-11-15T11:01:53;2.00;;;1.58;;
12816;SDS011;6473;51.552;6.716;2022-11-15T11:04:22;3.30;;;1.60;;
12816;SDS011;6473;51.552;6.716;2022-11-15T11:06:50;2.25;;;1.75;;
12816;SDS011;6473;51.552;6.716;2022-11-15T11:09:22;2.28;;;1.55;;
12816;SDS011;6473;51.552;6.716;2022-11-15T11:11:54;1.70;;;1.60;;
12816;SDS011;6473;51.552;6.716;2022-11-15T11:14:22;2.50;;;2.10;;
12816;SDS011;6473;51.552;6.716;2022-11-15T11:16:53;6.07;;;2.50;;
12816;SDS011;6473;51.552;6.716;2022-11-15T11:19:30;4.13;;;2.33;;
12816;SDS011;6473;51.552;6.716;2022-11-15T11:22:06;2.25;;;1.95;;
12816;SDS011;6473;51.552;6.716;2022-11-15T11:24:43;2.90;;;2.00;;
12816;SDS011;6473;51.552;6.716;2022-11-15T11:27:18;3.38;;;1.95;;
12816;SDS011;6473;51.552;6.716;2022-11-15T11:29:59;2.05;;;1.50;;
12816;SDS011;6473;51.552;6.716;2022-11-15T11:32:40;1.95;;;1.55;;
12816;SDS011;6473;51.552;6.716;2022-11-15T11:35:26;1.40;;;1.30;;
12816;SDS011;6473;51.552;6.716;2022-11-15T11:38:03;2.40;;;1.63;;
12816;SDS011;6473;51.552;6.716;2022-11-15T11:40:43;1.70;;;1.60;;
12816;SDS011;6473;51.552;6.716;2022-11-15T11:43:16;2.22;;;1.55;;
12816;SDS011;6473;51.552;6.716;2022-11-15T11:46:02;2.40;;;1.45;;
12816;SDS011;6473;51.552;6.716;2022-11-15T11:48:40;2.75;;;1.48;;
12816;SDS011;6473;51.552;6.716;2022-11-15T11:51:12;3.15;;;1.65;;
12816;SDS011;6473;51.552;6.716;2022-11-15T11:53:45;1.45;;;1.35;;
12816;SDS011;6473;51.552;6.716;2022-11-15T11:56:19;1.65;;;1.40;;
12816;SDS011;6473;51.552;6.716;2022-11-15T11:58:52;3.85;;;1.40;;
12816;SDS011;6473;51.552;6.716;2022-11-15T12:01:22;3.78;;;1.90;;
12816;SDS011;6473;51.552;6.716;2022-11-15T12:03:52;3.33;;;1.40;;
12816;SDS011;6473;51.552;6.716;2022-11-15T12:06:29;4.45;;;1.30;;
12816;SDS011;6473;51.552;6.716;2022-11-15T12:09:01;3.63;;;1.55;;
12816;SDS011;6473;51.552;6.716;2022-11-15T12:11:35;1.75;;;1.40;;
12816;SDS011;6473;51.552;6.716;2022-11-15T12:14:11;1.50;;;1.02;;
12816;SDS011;6473;51.552;6.716;2022-11-15T12:16:44;2.45;;;1.00;;
12816;SDS011;6473;51.552;6.716;2022-11-15T12:19:11;2.35;;;1.20;;
12816;SDS011;6473;51.552;6.716;2022-11-15T12:21:41;1.45;;;1.35;;
12816;SDS011;6473;51.552;6.716;2022-11-15T12:24:20;1.58;;;1.10;;
12816;SDS011;6473;51.552;6.716;2022-11-15T12:26:51;4.47;;;1.40;;
12816;SDS011;6473;51.552;6.716;2022-11-15T12:29:23;1.92;;;1.35;;
12816;SDS011;6473;51.552;6.716;2022-11-15T12:31:57;2.55;;;1.45;;
12816;SDS011;6473;51.552;6.716;2022-11-15T12:40:19;6.10;;;2.33;;
12816;SDS011;6473;51.552;6.716;2022-11-15T12:42:58;5.53;;;1.90;;
12816;SDS011;6473;51.552;6.716;2022-11-15T12:45:28;3.33;;;1.40;;
12816;SDS011;6473;51.552;6.716;2022-11-15T12:48:21;3.67;;;1.73;;
12816;SDS011;6473;51.552;6.716;2022-11-15T12:51:06;3.67;;;1.88;;
12816;SDS011;6473;51.552;6.716;2022-11-15T12:53:33;2.08;;;1.30;;
12816;SDS011;6473;51.552;6.716;2022-11-15T12:58:55;3.78;;;1.20;;
12816;SDS011;6473;51.552;6.716;2022-11-15T13:04:26;3.13;;;0.90;;
12816;SDS011;6473;51.552;6.716;2022-11-15T13:06:56;2.17;;;1.17;;
12816;SDS011;6473;51.552;6.716;2022-11-15T13:15:31;1.48;;;1.17;;
12816;SDS011;6473;51.552;6.716;2022-11-15T13:20:54;0.80;;;0.80;;
12816;SDS011;6473;51.552;6.716;2022-11-15T13:23:21;1.13;;;0.93;;
12816;SDS011;6473;51.552;6.716;2022-11-15T13:26:02;1.27;;;0.93;;
12816;SDS011;6473;51.552;6.716;2022-11-15T13:28:44;1.88;;;1.20;;
12816;SDS011;6473;51.552;6.716;2022-11-15T13:31:19;2.13;;;1.15;;
12816;SDS011;6473;51.552;6.716;2022-11-15T13:33:56;2.58;;;0.90;;
12816;SDS011;6473;51.552;6.716;2022-11-15T13:36:26;2.75;;;1.10;;
12816;SDS011;6473;51.552;6.716;2022-11-15T13:38:56;2.63;;;1.30;;
12816;SDS011;6473;51.552;6.716;2022-11-15T13:41:25;2.15;;;1.00;;
12816;SDS011;6473;51.552;6.716;2022-11-15T13:43:55;1.73;;;1.00;;
12816;SDS011;6473;51.552;6.716;2022-11-15T13:46:24;3.42;;;1.40;;
12816;SDS011;6473;51.552;6.716;2022-11-15T13:48:54;2.67;;;1.30;;
12816;SDS011;6473;51.552;6.716;2022-11-15T13:51:27;1.50;;;1.40;;
12816;SDS011;6473;51.552;6.716;2022-11-15T13:53:59;3.28;;;1.30;;
12816;SDS011;6473;51.552;6.716;2022-11-15T13:56:29;3.20;;;1.02;;
12816;SDS011;6473;51.552;6.716;2022-11-15T13:59:00;4.05;;;1.00;;
12816;SDS011;6473;51.552;6.716;2022-11-15T14:01:34;3.00;;;1.02;;
12816;SDS011;6473;51.552;6.716;2022-11-15T14:04:01;3.25;;;1.30;;
12816;SDS011;6473;51.552;6.716;2022-11-15T14:06:29;1.85;;;1.25;;
12816;SDS011;6473;51.552;6.716;2022-11-15T14:08:59;2.78;;;0.80;;
12816;SDS011;6473;51.552;6.716;2022-11-15T14:11:29;4.15;;;0.95;;
12816;SDS011;6473;51.552;6.716;2022-11-15T14:16:47;2.85;;;1.08;;
12816;SDS011;6473;51.552;6.716;2022-11-15T14:22:08;1.33;;;0.70;;
12816;SDS011;6473;51.552;6.716;2022-11-15T14:24:40;2.88;;;0.82;;
12816;SDS011;6473;51.552;6.716;2022-11-15T14:27:21;1.23;;;1.05;;
12816;SDS011;6473;51.552;6.716;2022-11-15T14:29:51;2.33;;;1.00;;
12816;SDS011;6473;51.552;6.716;2022-11-15T14:32:22;1.65;;;1.30;;
12816;SDS011;6473;51.552;6.716;2022-11-15T14:34:53;3.10;;;1.40;;
12816;SDS011;6473;51.552;6.716;2022-11-15T14:37:22;3.63;;;1.10;;
12816;SDS011;6473;51.552;6.716;2022-11-15T14:39:50;2.33;;;1.20;;
12816;SDS011;6473;51.552;6.716;2022-11-15T14:42:18;2.42;;;1.00;;
12816;SDS011;6473;51.552;6.716;2022-11-15T14:44:46;1.15;;;0.90;;
12816;SDS011;6473;51.552;6.716;2022-11-15T14:47:15;1.75;;;1.00;;
12816;SDS011;6473;51.552;6.716;2022-11-15T14:49:42;0.80;;;0.80;;
12816;SDS011;6473;51.552;6.716;2022-11-15T14:52:25;2.08;;;1.10;;
12816;SDS011;6473;51.552;6.716;2022-11-15T14:54:53;2.97;;;1.27;;
12816;SDS011;6473;51.552;6.716;2022-11-15T14:57:21;1.10;;;1.00;;
12816;SDS011;6473;51.552;6.716;2022-11-15T14:59:48;2.10;;;1.10;;
12816;SDS011;6473;51.552;6.716;2022-11-15T15:02:18;2.22;;;1.10;;
12816;SDS011;6473;51.552;6.716;2022-11-15T15:04:46;2.58;;;1.30;;
12816;SDS011;6473;51.552;6.716;2022-11-15T15:07:14;1.63;;;1.17;;
12816;SDS011;6473;51.552;6.716;2022-11-15T15:09:42;4.00;;;1.55;;
12816;SDS011;6473;51.552;6.716;2022-11-15T15:12:15;2.00;;;1.60;;
12816;SDS011;6473;51.552;6.716;2022-11-15T15:14:44;2.65;;;1.65;;
12816;SDS011;6473;51.552;6.716;2022-11-15T15:17:12;2.25;;;1.27;;
12816;SDS011;6473;51.552;6.716;2022-11-15T15:19:41;1.33;;;1.17;;
12816;SDS011;6473;51.552;6.716;2022-11-15T15:22:10;1.50;;;1.40;;
12816;SDS011;6473;51.552;6.716;2022-11-15T15:24:40;2.42;;;1.20;;
12816;SDS011;6473;51.552;6.716;2022-11-15T15:27:08;2.63;;;1.60;;
12816;SDS011;6473;51.552;6.716;2022-11-15T15:29:35;4.60;;;1.60;;
12816;SDS011;6473;51.552;6.716;2022-11-15T15:32:11;2.17;;;1.38;;
12816;SDS011;6473;51.552;6.716;2022-11-15T15:34:39;1.92;;;1.50;;
12816;SDS011;6473;51.552;6.716;2022-11-15T15:37:08;3.42;;;1.50;;
12816;SDS011;6473;51.552;6.716;2022-11-15T15:39:39;2.38;;;1.58;;
12816;SDS011;6473;51.552;6.716;2022-11-15T15:42:07;2.38;;;1.50;;
12816;SDS011;6473;51.552;6.716;2022-11-15T15:44:34;2.22;;;1.80;;
12816;SDS011;6473;51.552;6.716;2022-11-15T15:47:01;3.92;;;1.50;;
12816;SDS011;6473;51.552;6.716;2022-11-15T15:49:27;2.20;;;1.50;;
12816;SDS011;6473;51.552;6.716;2022-11-15T15:51:54;3.75;;;1.60;;
12816;SDS011;6473;51.552;6.716;2022-11-15T15:54:23;1.90;;;1.70;;
12816;SDS011;6473;51.552;6.716;2022-11-15T15:56:50;3.63;;;1.63;;
12816;SDS011;6473;51.552;6.716;2022-11-15T15:59:16;2.70;;;1.70;;
12816;SDS011;6473;51.552;6.716;2022-11-15T16:01:43;2.67;;;1.60;;
12816;SDS011;6473;51.552;6.716;2022-11-15T16:04:10;1.90;;;1.75;;
12816;SDS011;6473;51.552;6.716;2022-11-15T16:06:38;1.95;;;1.75;;
12816;SDS011;6473;51.552;6.716;2022-11-15T16:09:10;2.50;;;2.00;;
12816;SDS011;6473;51.552;6.716;2022-11-15T16:11:41;3.08;;;1.60;;
12816;SDS011;6473;51.552;6.716;2022-11-15T16:14:10;5.05;;;2.20;;
12816;SDS011;6473;51.552;6.716;2022-11-15T16:16:37;5.32;;;1.98;;
12816;SDS011;6473;51.552;6.716;2022-11-15T16:19:04;3.47;;;2.28;;
12816;SDS011;6473;51.552;6.716;2022-11-15T16:21:31;3.63;;;2.15;;
12816;SDS011;6473;51.552;6.716;2022-11-15T16:23:58;3.35;;;1.80;;
12816;SDS011;6473;51.552;6.716;2022-11-15T16:26:27;1.85;;;1.73;;
12816;SDS011;6473;51.552;6.716;2022-11-15T16:28:57;1.80;;;1.63;;
12816;SDS011;6473;51.552;6.716;2022-11-15T16:31:24;2.70;;;2.13;;
12816;SDS011;6473;51.552;6.716;2022-11-15T16:33:52;3.20;;;1.80;;
12816;SDS011;6473;51.552;6.716;2022-11-15T16:36:21;3.25;;;2.17;;
12816;SDS011;6473;51.552;6.716;2022-11-15T16:38:49;2.97;;;1.90;;
12816;SDS011;6473;51.552;6.716;2022-11-15T16:41:16;4.07;;;2.00;;
12816;SDS011;6473;51.552;6.716;2022-11-15T16:43:44;1.92;;;1.80;;
12816;SDS011;6473;51.552;6.716;2022-11-15T16:46:17;3.20;;;2.00;;
12816;SDS011;6473;51.552;6.716;2022-11-15T16:48:45;1.70;;;1.60;;
12816;SDS011;6473;51.552;6.716;2022-11-15T16:51:12;1.80;;;1.70;;
12816;SDS011;6473;51.552;6.716;2022-11-15T16:53:40;5.40;;;1.90;;
12816;SDS011;6473;51.552;6.716;2022-11-15T16:56:14;2.28;;;2.00;;
12816;SDS011;6473;51.552;6.716;2022-11-15T16:58:49;1.60;;;1.50;;
12816;SDS011;6473;51.552;6.716;2022-11-15T17:01:18;2.22;;;2.03;;
12816;SDS011;6473;51.552;6.716;2022-11-15T17:03:48;1.77;;;1.67;;
12816;SDS011;6473;51.552;6.716;2022-11-15T17:06:17;2.00;;;1.80;;
12816;SDS011;6473;51.552;6.716;2022-11-15T17:08:45;1.92;;;1.80;;
12816;SDS011;6473;51.552;6.716;2022-11-15T17:11:13;2.53;;;1.90;;
12816;SDS011;6473;51.552;6.716;2022-11-15T17:13:43;1.80;;;1.70;;
12816;SDS011;6473;51.552;6.716;2022-11-15T17:16:16;3.60;;;1.70;;
12816;SDS011;6473;51.552;6.716;2022-11-15T17:18:49;2.17;;;1.70;;
12816;SDS011;6473;51.552;6.716;2022-11-15T17:21:18;4.00;;;1.70;;
12816;SDS011;6473;51.552;6.716;2022-11-15T17:23:46;2.38;;;1.80;;
12816;SDS011;6473;51.552;6.716;2022-11-15T17:26:14;3.05;;;2.20;;
12816;SDS011;6473;51.552;6.716;2022-11-15T17:28:43;5.90;;;2.03;;